sensor_id;sensor_type;location;lat;lon;timestamp;temperature;humidity
53776;DHT22;44276;49.534;6.378;2022-08-04T00:01:24;17.90;99.90
53776;DHT22;44276;49.534;6.378;2022-08-04T00:04:03;17.80;99.90
53776;DHT22;44276;49.534;6.378;2022-08-04T00:06:47;17.80;99.90
53776;DHT22;44276;49.534;6.378;2022-08-04T00:09:29;17.80;99.90
53776;DHT22;44276;49.534;6.378;2022-08-04T00:12:06;17.80;99.90
53776;DHT22;44276;49.534;6.378;2022-08-04T00:14:45;17.80;99.90
53776;DHT22;44276;49.534;6.378;2022-08-04T00:17:20;17.70;99.90
53776;DHT22;44276;49.534;6.378;2022-08-04T00:19:56;17.70;99.90
53776;DHT22;44276;49.534;6.378;2022-08-04T00:22:29;17.60;99.90
53776;DHT22;44276;49.534;6.378;2022-08-04T00:25:01;17.60;99.90
53776;DHT22;44276;49.534;6.378;2022-08-04T00:27:32;17.50;99.90
53776;DHT22;44276;49.534;6.378;2022-08-04T00:30:03;17.40;99.90
53776;DHT22;44276;49.534;6.378;2022-08-04T00:32:33;17.30;99.90
53776;DHT22;44276;49.534;6.378;2022-08-04T00:35:04;17.40;99.90
53776;DHT22;44276;49.534;6.378;2022-08-04T00:37:37;17.30;99.90
53776;DHT22;44276;49.534;6.378;2022-08-04T00:40:12;17.30;99.90
53776;DHT22;44276;49.534;6.378;2022-08-04T00:42:58;17.20;99.90
53776;DHT22;44276;49.534;6.378;2022-08-04T00:45:47;17.20;99.90
53776;DHT22;44276;49.534;6.378;2022-08-04T00:49:03;17.20;99.90
53776;DHT22;44276;49.534;6.378;2022-08-04T00:52:04;17.20;99.90
53776;DHT22;44276;49.534;6.378;2022-08-04T00:55:04;17.10;99.90
53776;DHT22;44276;49.534;6.378;2022-08-04T00:58:00;17.00;99.90
53776;DHT22;44276;49.534;6.378;2022-08-04T01:00:45;17.00;99.90
53776;DHT22;44276;49.534;6.378;2022-08-04T01:03:25;17.00;99.90
53776;DHT22;44276;49.534;6.378;2022-08-04T01:06:10;17.10;99.90
53776;DHT22;44276;49.534;6.378;2022-08-04T01:08:57;17.10;99.90
53776;DHT22;44276;49.534;6.378;2022-08-04T01:12:04;17.00;99.90
53776;DHT22;44276;49.534;6.378;2022-08-04T01:14:53;17.00;99.90
53776;DHT22;44276;49.534;6.378;2022-08-04T01:17:47;17.00;99.90
53776;DHT22;44276;49.534;6.378;2022-08-04T01:20:30;17.10;99.90
53776;DHT22;44276;49.534;6.378;2022-08-04T01:23:52;17.10;99.90
53776;DHT22;44276;49.534;6.378;2022-08-04T01:26:51;17.10;99.90
53776;DHT22;44276;49.534;6.378;2022-08-04T01:29:29;17.00;99.90
53776;DHT22;44276;49.534;6.378;2022-08-04T01:32:18;17.10;99.90
53776;DHT22;44276;49.534;6.378;2022-08-04T01:34:55;17.00;99.90
53776;DHT22;44276;49.534;6.378;2022-08-04T01:37:42;17.10;99.90
53776;DHT22;44276;49.534;6.378;2022-08-04T01:40:16;17.10;99.90
53776;DHT22;44276;49.534;6.378;2022-08-04T01:42:48;17.00;99.90
53776;DHT22;44276;49.534;6.378;2022-08-04T01:45:23;16.90;99.90
53776;DHT22;44276;49.534;6.378;2022-08-04T01:47:54;16.80;99.90
53776;DHT22;44276;49.534;6.378;2022-08-04T01:50:24;16.60;99.90
53776;DHT22;44276;49.534;6.378;2022-08-04T01:52:54;16.60;99.90
53776;DHT22;44276;49.534;6.378;2022-08-04T01:55:23;16.50;99.90
53776;DHT22;44276;49.534;6.378;2022-08-04T01:58:18;16.50;99.90
53776;DHT22;44276;49.534;6.378;2022-08-04T02:00:55;16.50;99.90
53776;DHT22;44276;49.534;6.378;2022-08-04T02:03:31;16.60;99.90
53776;DHT22;44276;49.534;6.378;2022-08-04T02:06:31;16.60;99.90
53776;DHT22;44276;49.534;6.378;2022-08-04T02:09:18;16.50;99.90
53776;DHT22;44276;49.534;6.378;2022-08-04T02:11:59;16.40;99.90
53776;DHT22;44276;49.534;6.378;2022-08-04T02:14:44;16.40;99.90
53776;DHT22;44276;49.534;6.378;2022-08-04T02:17:28;16.30;99.90
53776;DHT22;44276;49.534;6.378;2022-08-04T02:20:04;16.30;99.90
53776;DHT22;44276;49.534;6.378;2022-08-04T02:22:39;16.30;99.90
53776;DHT22;44276;49.534;6.378;2022-08-04T02:25:11;16.30;99.90
53776;DHT22;44276;49.534;6.378;2022-08-04T02:27:54;16.30;99.90
53776;DHT22;44276;49.534;6.378;2022-08-04T02:30:37;16.30;99.90
53776;DHT22;44276;49.534;6.378;2022-08-04T02:33:14;16.40;99.90
53776;DHT22;44276;49.534;6.378;2022-08-04T02:35:55;16.40;99.90
53776;DHT22;44276;49.534;6.378;2022-08-04T02:38:38;16.40;99.90
53776;DHT22;44276;49.534;6.378;2022-08-04T02:41:15;16.30;99.90
53776;DHT22;44276;49.534;6.378;2022-08-04T02:43:47;16.20;99.90
53776;DHT22;44276;49.534;6.378;2022-08-04T02:46:20;16.20;99.90
53776;DHT22;44276;49.534;6.378;2022-08-04T02:48:51;16.20;99.90
53776;DHT22;44276;49.534;6.378;2022-08-04T02:51:26;16.40;99.90
53776;DHT22;44276;49.534;6.378;2022-08-04T02:53:57;16.20;99.90
53776;DHT22;44276;49.534;6.378;2022-08-04T02:56:29;16.10;99.90
53776;DHT22;44276;49.534;6.378;2022-08-04T02:59:00;16.10;99.90
53776;DHT22;44276;49.534;6.378;2022-08-04T03:01:30;16.00;99.90
53776;DHT22;44276;49.534;6.378;2022-08-04T03:04:13;16.00;99.90
53776;DHT22;44276;49.534;6.378;2022-08-04T03:07:22;15.90;99.90
53776;DHT22;44276;49.534;6.378;2022-08-04T03:13:49;15.80;99.90
53776;DHT22;44276;49.534;6.378;2022-08-04T03:16:59;15.80;99.90
53776;DHT22;44276;49.534;6.378;2022-08-04T03:20:23;15.70;99.90
53776;DHT22;44276;49.534;6.378;2022-08-04T03:23:28;15.70;99.90
53776;DHT22;44276;49.534;6.378;2022-08-04T03:26:50;15.60;99.90
53776;DHT22;44276;49.534;6.378;2022-08-04T03:29:59;15.60;99.90
53776;DHT22;44276;49.534;6.378;2022-08-04T03:33:09;15.60;99.90
53776;DHT22;44276;49.534;6.378;2022-08-04T03:36:14;15.60;99.90
53776;DHT22;44276;49.534;6.378;2022-08-04T03:42:50;15.50;99.90
53776;DHT22;44276;49.534;6.378;2022-08-04T03:46:34;15.50;99.90
53776;DHT22;44276;49.534;6.378;2022-08-04T03:56:26;15.30;99.90
53776;DHT22;44276;49.534;6.378;2022-08-04T03:59:23;15.30;99.90
53776;DHT22;44276;49.534;6.378;2022-08-04T04:02:20;15.20;99.90
53776;DHT22;44276;49.534;6.378;2022-08-04T04:08:47;15.10;99.90
53776;DHT22;44276;49.534;6.378;2022-08-04T04:11:49;15.10;99.90
53776;DHT22;44276;49.534;6.378;2022-08-04T04:14:48;15.10;99.90
53776;DHT22;44276;49.534;6.378;2022-08-04T04:17:43;15.10;99.90
53776;DHT22;44276;49.534;6.378;2022-08-04T04:20:31;15.10;99.90
53776;DHT22;44276;49.534;6.378;2022-08-04T04:23:35;15.20;99.90
53776;DHT22;44276;49.534;6.378;2022-08-04T04:26:39;15.30;99.90
53776;DHT22;44276;49.534;6.378;2022-08-04T04:29:35;15.40;99.90
53776;DHT22;44276;49.534;6.378;2022-08-04T04:32:22;15.50;99.90
53776;DHT22;44276;49.534;6.378;2022-08-04T04:35:17;15.60;99.90
53776;DHT22;44276;49.534;6.378;2022-08-04T04:38:16;15.70;99.90
53776;DHT22;44276;49.534;6.378;2022-08-04T04:41:13;15.90;99.90
53776;DHT22;44276;49.534;6.378;2022-08-04T04:47:21;16.30;99.90
53776;DHT22;44276;49.534;6.378;2022-08-04T04:50:22;16.40;99.90
53776;DHT22;44276;49.534;6.378;2022-08-04T04:53:08;16.60;99.90
53776;DHT22;44276;49.534;6.378;2022-08-04T04:55:49;16.70;99.90
53776;DHT22;44276;49.534;6.378;2022-08-04T04:58:21;16.90;99.90
53776;DHT22;44276;49.534;6.378;2022-08-04T05:01:07;17.00;99.90
53776;DHT22;44276;49.534;6.378;2022-08-04T05:04:10;17.10;99.90
53776;DHT22;44276;49.534;6.378;2022-08-04T05:07:05;17.30;99.90
53776;DHT22;44276;49.534;6.378;2022-08-04T05:10:01;17.50;99.90
53776;DHT22;44276;49.534;6.378;2022-08-04T05:12:47;17.70;99.90
53776;DHT22;44276;49.534;6.378;2022-08-04T05:15:48;17.80;99.90
53776;DHT22;44276;49.534;6.378;2022-08-04T05:18:25;18.00;99.90
53776;DHT22;44276;49.534;6.378;2022-08-04T05:21:17;18.20;99.90
53776;DHT22;44276;49.534;6.378;2022-08-04T05:23:57;18.50;99.90
53776;DHT22;44276;49.534;6.378;2022-08-04T05:26:32;19.00;99.90
53776;DHT22;44276;49.534;6.378;2022-08-04T05:29:08;19.70;99.90
53776;DHT22;44276;49.534;6.378;2022-08-04T05:31:43;20.90;99.90
53776;DHT22;44276;49.534;6.378;2022-08-04T05:34:21;22.30;99.90
53776;DHT22;44276;49.534;6.378;2022-08-04T05:36:56;23.40;99.90
53776;DHT22;44276;49.534;6.378;2022-08-04T05:39:28;24.00;99.90
53776;DHT22;44276;49.534;6.378;2022-08-04T05:42:01;24.40;94.00
53776;DHT22;44276;49.534;6.378;2022-08-04T05:44:34;24.50;93.50
53776;DHT22;44276;49.534;6.378;2022-08-04T05:47:05;24.40;92.30
53776;DHT22;44276;49.534;6.378;2022-08-04T05:49:38;23.90;93.10
53776;DHT22;44276;49.534;6.378;2022-08-04T05:52:09;23.10;99.30
53776;DHT22;44276;49.534;6.378;2022-08-04T05:54:39;22.80;99.90
53776;DHT22;44276;49.534;6.378;2022-08-04T05:57:09;22.70;99.90
53776;DHT22;44276;49.534;6.378;2022-08-04T05:59:39;22.80;99.90
53776;DHT22;44276;49.534;6.378;2022-08-04T06:02:16;22.60;99.90
53776;DHT22;44276;49.534;6.378;2022-08-04T06:04:49;22.60;99.90
53776;DHT22;44276;49.534;6.378;2022-08-04T06:07:19;23.30;99.90
53776;DHT22;44276;49.534;6.378;2022-08-04T06:09:48;24.60;95.60
53776;DHT22;44276;49.534;6.378;2022-08-04T06:12:18;25.90;83.80
53776;DHT22;44276;49.534;6.378;2022-08-04T06:14:51;27.20;69.50
53776;DHT22;44276;49.534;6.378;2022-08-04T06:17:30;28.10;61.60
53776;DHT22;44276;49.534;6.378;2022-08-04T06:20:22;28.80;53.00
53776;DHT22;44276;49.534;6.378;2022-08-04T06:23:03;29.00;49.80
53776;DHT22;44276;49.534;6.378;2022-08-04T06:25:38;29.50;46.50
53776;DHT22;44276;49.534;6.378;2022-08-04T06:28:10;29.50;45.30
53776;DHT22;44276;49.534;6.378;2022-08-04T06:30:40;29.60;41.20
53776;DHT22;44276;49.534;6.378;2022-08-04T06:33:15;29.60;41.30
53776;DHT22;44276;49.534;6.378;2022-08-04T06:35:54;29.70;40.90
53776;DHT22;44276;49.534;6.378;2022-08-04T06:38:26;29.80;38.30
53776;DHT22;44276;49.534;6.378;2022-08-04T06:40:56;29.60;39.20
53776;DHT22;44276;49.534;6.378;2022-08-04T06:43:30;29.70;38.40
53776;DHT22;44276;49.534;6.378;2022-08-04T06:46:08;30.30;37.60
53776;DHT22;44276;49.534;6.378;2022-08-04T06:48:41;31.10;34.00
53776;DHT22;44276;49.534;6.378;2022-08-04T06:51:11;31.40;32.70
53776;DHT22;44276;49.534;6.378;2022-08-04T06:53:58;31.90;32.40
53776;DHT22;44276;49.534;6.378;2022-08-04T06:56:29;32.70;30.20
53776;DHT22;44276;49.534;6.378;2022-08-04T06:59:00;33.10;29.30
53776;DHT22;44276;49.534;6.378;2022-08-04T07:01:29;32.80;28.90
53776;DHT22;44276;49.534;6.378;2022-08-04T07:04:00;32.90;29.20
53776;DHT22;44276;49.534;6.378;2022-08-04T07:06:29;33.90;27.50
53776;DHT22;44276;49.534;6.378;2022-08-04T07:08:57;34.20;26.80
53776;DHT22;44276;49.534;6.378;2022-08-04T07:11:26;34.10;26.90
53776;DHT22;44276;49.534;6.378;2022-08-04T07:14:10;34.70;26.10
53776;DHT22;44276;49.534;6.378;2022-08-04T07:16:39;35.80;25.00
53776;DHT22;44276;49.534;6.378;2022-08-04T07:19:10;36.10;24.00
53776;DHT22;44276;49.534;6.378;2022-08-04T07:21:44;36.90;23.80
53776;DHT22;44276;49.534;6.378;2022-08-04T07:24:35;37.70;22.20
53776;DHT22;44276;49.534;6.378;2022-08-04T07:27:07;38.30;21.50
53776;DHT22;44276;49.534;6.378;2022-08-04T07:29:36;38.80;20.80
53776;DHT22;44276;49.534;6.378;2022-08-04T07:32:06;38.50;20.70
53776;DHT22;44276;49.534;6.378;2022-08-04T07:34:38;38.30;21.30
53776;DHT22;44276;49.534;6.378;2022-08-04T07:37:15;39.00;20.40
53776;DHT22;44276;49.534;6.378;2022-08-04T07:39:44;39.10;19.80
53776;DHT22;44276;49.534;6.378;2022-08-04T07:42:18;38.90;19.70
53776;DHT22;44276;49.534;6.378;2022-08-04T07:44:47;39.60;18.80
53776;DHT22;44276;49.534;6.378;2022-08-04T07:47:17;40.60;18.70
53776;DHT22;44276;49.534;6.378;2022-08-04T07:49:52;40.20;18.10
53776;DHT22;44276;49.534;6.378;2022-08-04T07:52:24;39.00;19.00
53776;DHT22;44276;49.534;6.378;2022-08-04T07:54:53;38.80;18.70
53776;DHT22;44276;49.534;6.378;2022-08-04T07:57:21;39.00;18.20
53776;DHT22;44276;49.534;6.378;2022-08-04T08:00:11;39.00;19.00
53776;DHT22;44276;49.534;6.378;2022-08-04T08:02:41;39.50;18.10
53776;DHT22;44276;49.534;6.378;2022-08-04T08:05:14;39.50;18.20
53776;DHT22;44276;49.534;6.378;2022-08-04T08:07:46;40.20;17.90
53776;DHT22;44276;49.534;6.378;2022-08-04T08:10:20;40.30;17.40
53776;DHT22;44276;49.534;6.378;2022-08-04T08:12:49;40.30;17.70
53776;DHT22;44276;49.534;6.378;2022-08-04T08:15:19;41.10;17.60
53776;DHT22;44276;49.534;6.378;2022-08-04T08:17:48;42.00;16.90
53776;DHT22;44276;49.534;6.378;2022-08-04T08:20:28;42.30;16.20
53776;DHT22;44276;49.534;6.378;2022-08-04T08:23:00;42.00;16.60
53776;DHT22;44276;49.534;6.378;2022-08-04T08:25:30;42.40;16.80
53776;DHT22;44276;49.534;6.378;2022-08-04T08:28:09;42.70;16.00
53776;DHT22;44276;49.534;6.378;2022-08-04T08:30:38;43.50;15.90
53776;DHT22;44276;49.534;6.378;2022-08-04T08:33:09;44.30;14.80
53776;DHT22;44276;49.534;6.378;2022-08-04T08:35:49;44.00;14.40
53776;DHT22;44276;49.534;6.378;2022-08-04T08:38:39;43.10;14.80
53776;DHT22;44276;49.534;6.378;2022-08-04T08:41:29;43.40;15.10
53776;DHT22;44276;49.534;6.378;2022-08-04T08:44:33;43.70;14.60
53776;DHT22;44276;49.534;6.378;2022-08-04T08:47:33;42.90;15.00
53776;DHT22;44276;49.534;6.378;2022-08-04T08:50:57;41.80;15.90
53776;DHT22;44276;49.534;6.378;2022-08-04T08:53:48;41.90;15.20
53776;DHT22;44276;49.534;6.378;2022-08-04T08:56:35;42.10;15.20
53776;DHT22;44276;49.534;6.378;2022-08-04T08:59:35;42.10;14.90
53776;DHT22;44276;49.534;6.378;2022-08-04T09:02:43;41.60;15.10
53776;DHT22;44276;49.534;6.378;2022-08-04T09:05:59;42.00;15.20
53776;DHT22;44276;49.534;6.378;2022-08-04T09:08:59;42.20;15.30
53776;DHT22;44276;49.534;6.378;2022-08-04T09:11:56;43.60;14.10
53776;DHT22;44276;49.534;6.378;2022-08-04T09:14:37;43.70;14.20
53776;DHT22;44276;49.534;6.378;2022-08-04T09:17:17;43.10;14.80
53776;DHT22;44276;49.534;6.378;2022-08-04T09:19:55;43.10;14.40
53776;DHT22;44276;49.534;6.378;2022-08-04T09:22:32;42.50;14.80
53776;DHT22;44276;49.534;6.378;2022-08-04T09:25:10;43.60;14.20
53776;DHT22;44276;49.534;6.378;2022-08-04T09:27:43;44.50;13.50
53776;DHT22;44276;49.534;6.378;2022-08-04T09:30:20;45.00;13.30
53776;DHT22;44276;49.534;6.378;2022-08-04T09:32:57;45.70;12.40
53776;DHT22;44276;49.534;6.378;2022-08-04T09:35:41;45.40;12.50
53776;DHT22;44276;49.534;6.378;2022-08-04T09:38:19;45.20;12.00
53776;DHT22;44276;49.534;6.378;2022-08-04T09:41:02;45.10;12.50
53776;DHT22;44276;49.534;6.378;2022-08-04T09:44:11;44.90;12.20
53776;DHT22;44276;49.534;6.378;2022-08-04T09:47:12;44.50;12.00
53776;DHT22;44276;49.534;6.378;2022-08-04T09:49:51;44.10;12.00
53776;DHT22;44276;49.534;6.378;2022-08-04T09:52:34;44.80;11.90
53776;DHT22;44276;49.534;6.378;2022-08-04T09:55:21;44.80;11.40
53776;DHT22;44276;49.534;6.378;2022-08-04T09:58:39;45.10;11.30
53776;DHT22;44276;49.534;6.378;2022-08-04T10:01:18;45.10;11.20
53776;DHT22;44276;49.534;6.378;2022-08-04T10:03:52;45.50;10.70
53776;DHT22;44276;49.534;6.378;2022-08-04T10:06:35;45.40;10.60
53776;DHT22;44276;49.534;6.378;2022-08-04T10:09:16;45.60;11.00
53776;DHT22;44276;49.534;6.378;2022-08-04T10:12:11;45.40;10.60
53776;DHT22;44276;49.534;6.378;2022-08-04T10:15:02;45.70;10.30
53776;DHT22;44276;49.534;6.378;2022-08-04T10:17:58;44.60;10.80
53776;DHT22;44276;49.534;6.378;2022-08-04T10:20:54;45.90;9.90
53776;DHT22;44276;49.534;6.378;2022-08-04T10:23:47;45.90;10.00
53776;DHT22;44276;49.534;6.378;2022-08-04T10:26:32;46.10;10.30
53776;DHT22;44276;49.534;6.378;2022-08-04T10:29:11;46.60;9.70
53776;DHT22;44276;49.534;6.378;2022-08-04T10:31:47;47.60;8.60
53776;DHT22;44276;49.534;6.378;2022-08-04T10:34:28;48.40;8.30
53776;DHT22;44276;49.534;6.378;2022-08-04T10:37:12;48.30;7.30
53776;DHT22;44276;49.534;6.378;2022-08-04T10:39:55;48.10;7.10
53776;DHT22;44276;49.534;6.378;2022-08-04T10:43:00;47.80;7.70
53776;DHT22;44276;49.534;6.378;2022-08-04T10:45:49;47.00;7.80
53776;DHT22;44276;49.534;6.378;2022-08-04T10:48:32;47.60;7.60
53776;DHT22;44276;49.534;6.378;2022-08-04T10:51:19;48.20;7.50
53776;DHT22;44276;49.534;6.378;2022-08-04T10:53:57;46.20;8.20
53776;DHT22;44276;49.534;6.378;2022-08-04T10:56:33;45.60;8.70
53776;DHT22;44276;49.534;6.378;2022-08-04T10:59:10;45.60;9.00
53776;DHT22;44276;49.534;6.378;2022-08-04T11:01:45;47.70;7.80
53776;DHT22;44276;49.534;6.378;2022-08-04T11:04:40;48.70;7.00
53776;DHT22;44276;49.534;6.378;2022-08-04T11:07:11;48.60;7.00
53776;DHT22;44276;49.534;6.378;2022-08-04T11:09:44;48.40;6.90
53776;DHT22;44276;49.534;6.378;2022-08-04T11:12:15;48.00;6.70
53776;DHT22;44276;49.534;6.378;2022-08-04T11:14:52;47.90;6.80
53776;DHT22;44276;49.534;6.378;2022-08-04T11:17:25;46.70;7.30
53776;DHT22;44276;49.534;6.378;2022-08-04T11:20:06;44.90;8.30
53776;DHT22;44276;49.534;6.378;2022-08-04T11:23:04;44.00;8.90
53776;DHT22;44276;49.534;6.378;2022-08-04T11:25:43;45.10;8.40
53776;DHT22;44276;49.534;6.378;2022-08-04T11:28:27;46.00;7.50
53776;DHT22;44276;49.534;6.378;2022-08-04T11:31:06;47.50;7.10
53776;DHT22;44276;49.534;6.378;2022-08-04T11:33:44;47.40;7.10
53776;DHT22;44276;49.534;6.378;2022-08-04T11:36:31;46.90;7.50
53776;DHT22;44276;49.534;6.378;2022-08-04T11:39:11;47.10;7.70
53776;DHT22;44276;49.534;6.378;2022-08-04T11:41:50;46.30;7.40
53776;DHT22;44276;49.534;6.378;2022-08-04T11:44:28;44.60;8.40
53776;DHT22;44276;49.534;6.378;2022-08-04T11:47:02;43.70;9.10
53776;DHT22;44276;49.534;6.378;2022-08-04T11:49:40;43.10;9.80
53776;DHT22;44276;49.534;6.378;2022-08-04T11:52:24;42.30;10.00
53776;DHT22;44276;49.534;6.378;2022-08-04T11:54:53;42.10;10.60
53776;DHT22;44276;49.534;6.378;2022-08-04T11:57:25;41.40;10.60
53776;DHT22;44276;49.534;6.378;2022-08-04T12:00:05;41.50;10.80
53776;DHT22;44276;49.534;6.378;2022-08-04T12:03:00;41.30;10.60
53776;DHT22;44276;49.534;6.378;2022-08-04T12:05:46;41.80;9.90
53776;DHT22;44276;49.534;6.378;2022-08-04T12:08:32;41.90;9.60
53776;DHT22;44276;49.534;6.378;2022-08-04T12:11:23;41.70;9.90
53776;DHT22;44276;49.534;6.378;2022-08-04T12:14:08;41.50;10.00
53776;DHT22;44276;49.534;6.378;2022-08-04T12:16:47;41.90;10.40
53776;DHT22;44276;49.534;6.378;2022-08-04T12:19:28;42.30;9.90
53776;DHT22;44276;49.534;6.378;2022-08-04T12:22:24;43.40;9.40
53776;DHT22;44276;49.534;6.378;2022-08-04T12:25:01;44.20;8.60
53776;DHT22;44276;49.534;6.378;2022-08-04T12:27:35;45.60;7.50
53776;DHT22;44276;49.534;6.378;2022-08-04T12:30:10;45.90;7.60
53776;DHT22;44276;49.534;6.378;2022-08-04T12:33:04;44.50;8.40
53776;DHT22;44276;49.534;6.378;2022-08-04T12:35:46;43.20;8.90
53776;DHT22;44276;49.534;6.378;2022-08-04T12:38:46;43.70;8.90
53776;DHT22;44276;49.534;6.378;2022-08-04T12:41:22;45.60;7.70
53776;DHT22;44276;49.534;6.378;2022-08-04T12:43:54;45.80;7.30
53776;DHT22;44276;49.534;6.378;2022-08-04T12:46:54;46.10;6.80
53776;DHT22;44276;49.534;6.378;2022-08-04T12:49:46;44.90;8.00
53776;DHT22;44276;49.534;6.378;2022-08-04T12:52:28;43.40;8.60
53776;DHT22;44276;49.534;6.378;2022-08-04T12:55:20;42.10;9.30
53776;DHT22;44276;49.534;6.378;2022-08-04T12:57:52;41.70;10.20
53776;DHT22;44276;49.534;6.378;2022-08-04T13:00:27;41.60;10.40
53776;DHT22;44276;49.534;6.378;2022-08-04T13:03:10;41.60;10.70
53776;DHT22;44276;49.534;6.378;2022-08-04T13:05:42;41.60;11.00
53776;DHT22;44276;49.534;6.378;2022-08-04T13:08:13;41.50;10.90
53776;DHT22;44276;49.534;6.378;2022-08-04T13:10:44;41.90;10.90
53776;DHT22;44276;49.534;6.378;2022-08-04T13:13:16;42.40;10.10
53776;DHT22;44276;49.534;6.378;2022-08-04T13:15:57;43.20;9.40
53776;DHT22;44276;49.534;6.378;2022-08-04T13:18:29;43.60;9.80
53776;DHT22;44276;49.534;6.378;2022-08-04T13:21:13;44.00;9.70
53776;DHT22;44276;49.534;6.378;2022-08-04T13:24:04;44.40;9.10
53776;DHT22;44276;49.534;6.378;2022-08-04T13:26:54;44.40;9.30
53776;DHT22;44276;49.534;6.378;2022-08-04T13:29:33;44.40;9.40
53776;DHT22;44276;49.534;6.378;2022-08-04T13:32:25;44.50;9.50
53776;DHT22;44276;49.534;6.378;2022-08-04T13:34:58;44.10;9.20
53776;DHT22;44276;49.534;6.378;2022-08-04T13:37:31;43.20;9.90
53776;DHT22;44276;49.534;6.378;2022-08-04T13:40:02;43.30;10.10
53776;DHT22;44276;49.534;6.378;2022-08-04T13:42:34;43.50;9.70
53776;DHT22;44276;49.534;6.378;2022-08-04T13:45:06;43.60;9.60
53776;DHT22;44276;49.534;6.378;2022-08-04T13:47:38;44.00;9.40
53776;DHT22;44276;49.534;6.378;2022-08-04T13:50:13;43.80;9.50
53776;DHT22;44276;49.534;6.378;2022-08-04T13:52:45;42.70;10.00
53776;DHT22;44276;49.534;6.378;2022-08-04T13:55:18;42.50;10.30
53776;DHT22;44276;49.534;6.378;2022-08-04T13:57:51;42.30;10.40
53776;DHT22;44276;49.534;6.378;2022-08-04T14:00:24;42.90;10.30
53776;DHT22;44276;49.534;6.378;2022-08-04T14:03:05;43.80;10.10
53776;DHT22;44276;49.534;6.378;2022-08-04T14:06:14;44.10;9.70
53776;DHT22;44276;49.534;6.378;2022-08-04T14:08:49;44.60;9.40
53776;DHT22;44276;49.534;6.378;2022-08-04T14:11:22;44.90;9.10
53776;DHT22;44276;49.534;6.378;2022-08-04T14:14:21;45.00;9.00
53776;DHT22;44276;49.534;6.378;2022-08-04T14:16:56;44.70;9.20
53776;DHT22;44276;49.534;6.378;2022-08-04T14:19:26;44.80;9.10
53776;DHT22;44276;49.534;6.378;2022-08-04T14:22:03;44.50;9.10
53776;DHT22;44276;49.534;6.378;2022-08-04T14:24:31;44.80;9.40
53776;DHT22;44276;49.534;6.378;2022-08-04T14:27:00;43.90;9.60
53776;DHT22;44276;49.534;6.378;2022-08-04T14:29:35;42.60;9.90
53776;DHT22;44276;49.534;6.378;2022-08-04T14:32:07;41.70;10.80
53776;DHT22;44276;49.534;6.378;2022-08-04T14:34:41;41.00;11.10
53776;DHT22;44276;49.534;6.378;2022-08-04T14:37:16;41.40;11.00
53776;DHT22;44276;49.534;6.378;2022-08-04T14:39:49;42.20;10.60
53776;DHT22;44276;49.534;6.378;2022-08-04T14:42:42;42.70;10.40
53776;DHT22;44276;49.534;6.378;2022-08-04T14:45:29;43.40;9.70
53776;DHT22;44276;49.534;6.378;2022-08-04T14:47:59;42.50;10.40
53776;DHT22;44276;49.534;6.378;2022-08-04T14:50:36;42.00;10.80
53776;DHT22;44276;49.534;6.378;2022-08-04T14:53:09;41.90;10.70
53776;DHT22;44276;49.534;6.378;2022-08-04T14:55:42;41.90;10.80
53776;DHT22;44276;49.534;6.378;2022-08-04T14:58:19;42.10;10.50
53776;DHT22;44276;49.534;6.378;2022-08-04T15:01:04;42.30;10.60
53776;DHT22;44276;49.534;6.378;2022-08-04T15:03:39;42.50;10.80
53776;DHT22;44276;49.534;6.378;2022-08-04T15:06:19;42.70;10.20
53776;DHT22;44276;49.534;6.378;2022-08-04T15:08:53;42.10;10.70
53776;DHT22;44276;49.534;6.378;2022-08-04T15:11:22;41.80;10.80
53776;DHT22;44276;49.534;6.378;2022-08-04T15:13:51;42.10;10.70
53776;DHT22;44276;49.534;6.378;2022-08-04T15:16:21;41.60;11.10
53776;DHT22;44276;49.534;6.378;2022-08-04T15:18:52;40.50;11.70
53776;DHT22;44276;49.534;6.378;2022-08-04T15:21:24;40.00;12.30
53776;DHT22;44276;49.534;6.378;2022-08-04T15:23:56;39.90;12.90
53776;DHT22;44276;49.534;6.378;2022-08-04T15:26:31;39.80;12.70
53776;DHT22;44276;49.534;6.378;2022-08-04T15:29:12;40.10;12.50
53776;DHT22;44276;49.534;6.378;2022-08-04T15:31:45;40.20;12.80
53776;DHT22;44276;49.534;6.378;2022-08-04T15:34:52;40.00;12.80
53776;DHT22;44276;49.534;6.378;2022-08-04T15:37:41;39.70;13.00
53776;DHT22;44276;49.534;6.378;2022-08-04T15:40:27;39.40;12.70
53776;DHT22;44276;49.534;6.378;2022-08-04T15:43:15;39.50;12.90
53776;DHT22;44276;49.534;6.378;2022-08-04T15:45:55;39.70;13.80
53776;DHT22;44276;49.534;6.378;2022-08-04T15:48:46;39.70;13.90
53776;DHT22;44276;49.534;6.378;2022-08-04T15:51:23;39.40;13.60
53776;DHT22;44276;49.534;6.378;2022-08-04T15:54:20;38.80;14.00
53776;DHT22;44276;49.534;6.378;2022-08-04T15:56:59;38.20;15.10
53776;DHT22;44276;49.534;6.378;2022-08-04T15:59:55;37.90;15.30
53776;DHT22;44276;49.534;6.378;2022-08-04T16:02:43;37.60;16.10
53776;DHT22;44276;49.534;6.378;2022-08-04T16:05:32;37.40;17.10
53776;DHT22;44276;49.534;6.378;2022-08-04T16:08:12;37.20;16.90
53776;DHT22;44276;49.534;6.378;2022-08-04T16:10:47;37.30;16.90
53776;DHT22;44276;49.534;6.378;2022-08-04T16:13:19;37.30;17.00
53776;DHT22;44276;49.534;6.378;2022-08-04T16:15:51;37.40;16.90
53776;DHT22;44276;49.534;6.378;2022-08-04T16:18:40;37.50;16.60
53776;DHT22;44276;49.534;6.378;2022-08-04T16:21:19;37.50;16.80
53776;DHT22;44276;49.534;6.378;2022-08-04T16:23:55;37.40;16.50
53776;DHT22;44276;49.534;6.378;2022-08-04T16:26:45;37.20;17.00
53776;DHT22;44276;49.534;6.378;2022-08-04T16:29:33;36.80;17.70
53776;DHT22;44276;49.534;6.378;2022-08-04T16:32:19;36.90;17.80
53776;DHT22;44276;49.534;6.378;2022-08-04T16:34:54;37.30;17.50
53776;DHT22;44276;49.534;6.378;2022-08-04T16:37:31;37.70;17.00
53776;DHT22;44276;49.534;6.378;2022-08-04T16:40:28;37.70;17.00
53776;DHT22;44276;49.534;6.378;2022-08-04T16:43:05;37.80;16.90
53776;DHT22;44276;49.534;6.378;2022-08-04T16:45:42;37.50;17.30
53776;DHT22;44276;49.534;6.378;2022-08-04T16:48:12;37.40;17.20
53776;DHT22;44276;49.534;6.378;2022-08-04T16:50:47;37.40;17.50
53776;DHT22;44276;49.534;6.378;2022-08-04T16:53:17;37.50;17.20
53776;DHT22;44276;49.534;6.378;2022-08-04T16:56:08;37.40;17.20
53776;DHT22;44276;49.534;6.378;2022-08-04T16:58:37;37.30;17.30
53776;DHT22;44276;49.534;6.378;2022-08-04T17:01:21;37.40;17.50
53776;DHT22;44276;49.534;6.378;2022-08-04T17:04:02;37.20;17.40
53776;DHT22;44276;49.534;6.378;2022-08-04T17:06:36;36.80;17.60
53776;DHT22;44276;49.534;6.378;2022-08-04T17:09:09;36.20;18.20
53776;DHT22;44276;49.534;6.378;2022-08-04T17:11:40;35.70;18.70
53776;DHT22;44276;49.534;6.378;2022-08-04T17:14:10;35.30;19.30
53776;DHT22;44276;49.534;6.378;2022-08-04T17:16:41;34.90;19.50
53776;DHT22;44276;49.534;6.378;2022-08-04T17:19:10;34.70;20.00
53776;DHT22;44276;49.534;6.378;2022-08-04T17:21:53;34.60;20.10
53776;DHT22;44276;49.534;6.378;2022-08-04T17:24:31;34.30;20.40
53776;DHT22;44276;49.534;6.378;2022-08-04T17:27:00;33.90;20.90